CheckWX is a tool to help pilots better visualize weather data.  It is not intended as a substitute for an official pre-flight weather briefing.

01:13:50 UTC

MRPV METAR
Tobias Bolanos International Airport
San Jose, Costa Rica
Current

1 hour ago

MRPV 140000Z0 00000KT 9999 VCFG FEW005 OVC100 20/19 A3001 NOSIG
Observed
Jul-14 @ 00:00 UTC
Visibility
10,000+ meters
Flight Rules
VFR
Conditions
Area Fog
Cloud Levels
  • Few at 500' AGL
  • Overcast at 10,000' AGL
Temperature
20°C / 68°F
Dewpoint
19°C / 66°F
Humidity
94%
Altimeter
30.01" Hg
Pressure
1016.22 hPa
Previous

2 hours ago

MRPV 132300Z 30005KT 9999 VCFG FEW007 OVC110 21/19 A3000 NOSIG
Observed
Jul-13 @ 23:00 UTC
Wind
  • 300° at 5 KTS
Visibility
10,000+ meters
Flight Rules
VFR
Conditions
Area Fog
Cloud Levels
  • Few at 700' AGL
  • Overcast at 11,000' AGL
Temperature
21°C / 70°F
Dewpoint
19°C / 66°F
Humidity
88%
Altimeter
30" Hg
Pressure
1015.92 hPa
Previous

3 hours ago

MRPV 132200Z 20001KT 9999 FEW015 OVC110 22/17 A2999 NOSIG
Observed
Jul-13 @ 22:00 UTC
Wind
  • 200° at 1 KTS
Visibility
10,000+ meters
Flight Rules
VFR
Cloud Levels
  • Few at 1,500' AGL
  • Overcast at 11,000' AGL
Temperature
22°C / 72°F
Dewpoint
17°C / 63°F
Humidity
73%
Altimeter
29.99" Hg
Pressure
1015.62 hPa